If you wish to contribute or participate in the discussions about articles you are invited to join SKYbrary as a registered user

 Actions

Ponciano Arriaga International Airport

From SKYbrary Wiki

MMSP
Airport
ICAO: MMSP – IATA: SLP
Summary
Name Ponciano Arriaga International Airport
Region South America and Caribbean
Territory Mexico MX.gif
Location San Luis Potosi, San Luis Potosi
Serving San Luis Potosi
Elevation 1,839.468 m
6,035 ft
6,035 ft1,839.468 m
Type medium airport
Coordinates 22° 15' 15.49" N, 100° 55' 50.90" W
Runways
Designator Length Width Surface ROPS
4/22 993 m3,257.874 ft
30 m98.425 ft
ASP yes/yes
14/32 3007 m9,865.486 ft
45 m147.638 ft
ASP yes/yes


METAR
Observation MMSP 161346Z 00000KT 8SM BKN250 13/04 A3026 RMK 8/008 HZY FU
Station San Luis Potosi, S. L. P.
Date/Time 16 April 2019 13:46:00
Wind direction
Wind speed 00 kts
Lowest cloud amount broken clouds
Temperature 13°C
Dew point 4°C
Humidity 54%
QNH hPa
Weather condition n/a

Ponciano Arriaga International Airport is an international airport located at San Luis Potosí, San Luis Potosi, Mexico.

Climatology

Warm Semi-arid Climate (Köppen climate classification BSh)

Maps

Terrain

Loading map...

Airport Layout

Loading map...


Accidents & Serious Incidents at or in vicinity of MMSP

None on SKYbrary